sensor_id;sensor_type;location;lat;lon;timestamp;temperature;humidity
41304;DHT22;51002;51.462;7.218;2023-05-09T00:01:36;16.60;80.80
41304;DHT22;51002;51.462;7.218;2023-05-09T00:04:01;16.50;80.80
41304;DHT22;51002;51.462;7.218;2023-05-09T00:06:29;16.50;80.80
41304;DHT22;51002;51.462;7.218;2023-05-09T00:08:56;16.50;81.30
41304;DHT22;51002;51.462;7.218;2023-05-09T00:11:22;16.40;81.10
41304;DHT22;51002;51.462;7.218;2023-05-09T00:13:51;16.50;81.10
41304;DHT22;51002;51.462;7.218;2023-05-09T00:16:17;16.40;80.90
41304;DHT22;51002;51.462;7.218;2023-05-09T00:18:45;16.40;81.20
41304;DHT22;51002;51.462;7.218;2023-05-09T00:21:11;16.30;81.00
41304;DHT22;51002;51.462;7.218;2023-05-09T00:23:39;16.30;81.10
41304;DHT22;51002;51.462;7.218;2023-05-09T00:26:05;16.30;81.50
41304;DHT22;51002;51.462;7.218;2023-05-09T00:28:30;16.30;81.20
41304;DHT22;51002;51.462;7.218;2023-05-09T00:30:59;16.30;81.10
41304;DHT22;51002;51.462;7.218;2023-05-09T00:33:24;16.40;81.10
41304;DHT22;51002;51.462;7.218;2023-05-09T00:35:52;16.30;81.40
41304;DHT22;51002;51.462;7.218;2023-05-09T00:38:20;16.30;81.00
41304;DHT22;51002;51.462;7.218;2023-05-09T00:40:51;16.30;81.20
41304;DHT22;51002;51.462;7.218;2023-05-09T00:43:19;16.30;81.10
41304;DHT22;51002;51.462;7.218;2023-05-09T00:45:45;16.30;81.10
41304;DHT22;51002;51.462;7.218;2023-05-09T00:48:10;16.20;81.20
41304;DHT22;51002;51.462;7.218;2023-05-09T00:50:38;16.20;81.30
41304;DHT22;51002;51.462;7.218;2023-05-09T00:53:04;16.20;81.30
41304;DHT22;51002;51.462;7.218;2023-05-09T00:55:30;16.20;81.40
41304;DHT22;51002;51.462;7.218;2023-05-09T00:59:34;16.20;81.70
41304;DHT22;51002;51.462;7.218;2023-05-09T01:02:00;16.20;81.20
41304;DHT22;51002;51.462;7.218;2023-05-09T01:04:25;16.10;81.20
41304;DHT22;51002;51.462;7.218;2023-05-09T01:06:56;16.10;81.40
41304;DHT22;51002;51.462;7.218;2023-05-09T01:16:55;16.10;81.00
41304;DHT22;51002;51.462;7.218;2023-05-09T01:19:40;16.00;81.20
41304;DHT22;51002;51.462;7.218;2023-05-09T01:22:14;16.00;81.30
41304;DHT22;51002;51.462;7.218;2023-05-09T01:30:02;16.00;81.30
41304;DHT22;51002;51.462;7.218;2023-05-09T01:32:29;16.00;81.60
41304;DHT22;51002;51.462;7.218;2023-05-09T01:34:58;15.90;81.40
41304;DHT22;51002;51.462;7.218;2023-05-09T01:37:28;15.90;81.40
41304;DHT22;51002;51.462;7.218;2023-05-09T01:39:57;15.90;81.50
41304;DHT22;51002;51.462;7.218;2023-05-09T01:42:24;15.90;81.50
41304;DHT22;51002;51.462;7.218;2023-05-09T01:44:51;15.90;81.50
41304;DHT22;51002;51.462;7.218;2023-05-09T01:47:18;15.90;81.40
41304;DHT22;51002;51.462;7.218;2023-05-09T01:49:46;15.90;81.40
41304;DHT22;51002;51.462;7.218;2023-05-09T01:52:14;15.90;81.40
41304;DHT22;51002;51.462;7.218;2023-05-09T01:54:40;16.00;82.00
41304;DHT22;51002;51.462;7.218;2023-05-09T01:57:06;15.90;81.50
41304;DHT22;51002;51.462;7.218;2023-05-09T01:59:32;15.90;82.00
41304;DHT22;51002;51.462;7.218;2023-05-09T02:01:59;16.00;81.70
41304;DHT22;51002;51.462;7.218;2023-05-09T02:04:27;15.90;82.20
41304;DHT22;51002;51.462;7.218;2023-05-09T02:06:57;15.90;81.60
41304;DHT22;51002;51.462;7.218;2023-05-09T02:09:25;15.90;82.40
41304;DHT22;51002;51.462;7.218;2023-05-09T02:11:53;15.90;82.00
41304;DHT22;51002;51.462;7.218;2023-05-09T02:14:19;15.80;82.10
41304;DHT22;51002;51.462;7.218;2023-05-09T02:16:46;15.80;81.90
41304;DHT22;51002;51.462;7.218;2023-05-09T02:19:12;15.80;81.90
41304;DHT22;51002;51.462;7.218;2023-05-09T02:21:37;15.90;82.00
41304;DHT22;51002;51.462;7.218;2023-05-09T02:24:07;15.90;81.60
41304;DHT22;51002;51.462;7.218;2023-05-09T02:26:33;15.90;81.60
41304;DHT22;51002;51.462;7.218;2023-05-09T02:57:03;15.80;81.60
41304;DHT22;51002;51.462;7.218;2023-05-09T05:35:26;15.80;82.10
41304;DHT22;51002;51.462;7.218;2023-05-09T06:53:15;16.20;86.20
41304;DHT22;51002;51.462;7.218;2023-05-09T06:55:43;17.60;81.10
41304;DHT22;51002;51.462;7.218;2023-05-09T06:58:29;17.60;82.30
41304;DHT22;51002;51.462;7.218;2023-05-09T07:00:55;17.70;82.40
41304;DHT22;51002;51.462;7.218;2023-05-09T07:03:21;17.80;80.60
41304;DHT22;51002;51.462;7.218;2023-05-09T07:05:50;17.90;79.40
41304;DHT22;51002;51.462;7.218;2023-05-09T07:08:16;18.00;79.60
41304;DHT22;51002;51.462;7.218;2023-05-09T07:10:44;18.00;78.90
41304;DHT22;51002;51.462;7.218;2023-05-09T07:13:10;18.00;78.30
41304;DHT22;51002;51.462;7.218;2023-05-09T07:15:37;18.10;78.50
41304;DHT22;51002;51.462;7.218;2023-05-09T07:18:03;18.20;80.10
41304;DHT22;51002;51.462;7.218;2023-05-09T07:20:28;18.10;78.30
41304;DHT22;51002;51.462;7.218;2023-05-09T07:22:54;18.20;77.80
41304;DHT22;51002;51.462;7.218;2023-05-09T07:25:22;18.30;80.20
41304;DHT22;51002;51.462;7.218;2023-05-09T07:27:48;18.50;80.30
41304;DHT22;51002;51.462;7.218;2023-05-09T07:30:13;18.60;78.80
41304;DHT22;51002;51.462;7.218;2023-05-09T07:32:41;18.60;78.10
41304;DHT22;51002;51.462;7.218;2023-05-09T07:35:07;18.70;78.00
41304;DHT22;51002;51.462;7.218;2023-05-09T07:37:35;18.80;79.80
41304;DHT22;51002;51.462;7.218;2023-05-09T07:40:01;18.80;76.80
41304;DHT22;51002;51.462;7.218;2023-05-09T07:42:27;18.80;77.10
41304;DHT22;51002;51.462;7.218;2023-05-09T07:44:54;18.80;76.10
41304;DHT22;51002;51.462;7.218;2023-05-09T07:47:23;18.90;76.70
41304;DHT22;51002;51.462;7.218;2023-05-09T07:49:48;18.90;76.20
41304;DHT22;51002;51.462;7.218;2023-05-09T07:52:16;18.90;77.60
41304;DHT22;51002;51.462;7.218;2023-05-09T07:54:42;18.90;76.40
41304;DHT22;51002;51.462;7.218;2023-05-09T07:57:08;18.80;76.00
41304;DHT22;51002;51.462;7.218;2023-05-09T07:59:33;19.00;76.10
41304;DHT22;51002;51.462;7.218;2023-05-09T08:02:01;19.10;75.10
41304;DHT22;51002;51.462;7.218;2023-05-09T08:04:29;19.30;76.90
41304;DHT22;51002;51.462;7.218;2023-05-09T08:06:55;19.10;75.60
41304;DHT22;51002;51.462;7.218;2023-05-09T08:09:22;19.10;75.60
41304;DHT22;51002;51.462;7.218;2023-05-09T08:11:48;19.00;74.90
41304;DHT22;51002;51.462;7.218;2023-05-09T08:14:13;18.90;75.30
41304;DHT22;51002;51.462;7.218;2023-05-09T08:16:41;18.90;74.80
41304;DHT22;51002;51.462;7.218;2023-05-09T08:19:07;19.00;75.20
41304;DHT22;51002;51.462;7.218;2023-05-09T08:21:33;19.10;76.50
41304;DHT22;51002;51.462;7.218;2023-05-09T08:24:03;19.00;75.50
41304;DHT22;51002;51.462;7.218;2023-05-09T08:26:30;19.00;78.70
41304;DHT22;51002;51.462;7.218;2023-05-09T08:28:55;18.80;74.80
41304;DHT22;51002;51.462;7.218;2023-05-09T08:31:23;18.90;74.90
41304;DHT22;51002;51.462;7.218;2023-05-09T08:33:53;19.10;76.00
41304;DHT22;51002;51.462;7.218;2023-05-09T08:36:21;19.10;76.30
41304;DHT22;51002;51.462;7.218;2023-05-09T08:38:47;19.10;75.50
41304;DHT22;51002;51.462;7.218;2023-05-09T08:41:15;19.10;73.80
41304;DHT22;51002;51.462;7.218;2023-05-09T08:43:40;19.70;72.20
41304;DHT22;51002;51.462;7.218;2023-05-09T08:46:09;19.80;72.60
41304;DHT22;51002;51.462;7.218;2023-05-09T08:48:35;20.30;70.90
41304;DHT22;51002;51.462;7.218;2023-05-09T08:51:06;20.30;68.60
41304;DHT22;51002;51.462;7.218;2023-05-09T09:00:14;21.70;65.00
41304;DHT22;51002;51.462;7.218;2023-05-09T09:02:41;21.40;63.60
41304;DHT22;51002;51.462;7.218;2023-05-09T09:05:07;21.20;65.90
41304;DHT22;51002;51.462;7.218;2023-05-09T09:07:33;22.80;60.30
41304;DHT22;51002;51.462;7.218;2023-05-09T09:10:44;23.70;59.70
41304;DHT22;51002;51.462;7.218;2023-05-09T09:13:15;24.30;57.00
41304;DHT22;51002;51.462;7.218;2023-05-09T09:15:42;24.20;54.90
41304;DHT22;51002;51.462;7.218;2023-05-09T09:18:08;24.60;55.30
41304;DHT22;51002;51.462;7.218;2023-05-09T09:20:39;24.90;55.50
41304;DHT22;51002;51.462;7.218;2023-05-09T09:23:06;25.30;50.90
41304;DHT22;51002;51.462;7.218;2023-05-09T09:25:35;25.50;51.00
41304;DHT22;51002;51.462;7.218;2023-05-09T09:28:00;25.60;50.40
41304;DHT22;51002;51.462;7.218;2023-05-09T09:30:26;25.50;49.60
41304;DHT22;51002;51.462;7.218;2023-05-09T09:32:51;25.60;49.90
41304;DHT22;51002;51.462;7.218;2023-05-09T09:35:17;25.90;49.70
41304;DHT22;51002;51.462;7.218;2023-05-09T09:37:46;26.30;50.50
41304;DHT22;51002;51.462;7.218;2023-05-09T09:40:14;26.20;48.30
41304;DHT22;51002;51.462;7.218;2023-05-09T09:42:44;26.00;49.60
41304;DHT22;51002;51.462;7.218;2023-05-09T09:45:15;24.80;49.90
41304;DHT22;51002;51.462;7.218;2023-05-09T09:47:42;25.00;54.00
41304;DHT22;51002;51.462;7.218;2023-05-09T09:52:42;25.60;47.40
41304;DHT22;51002;51.462;7.218;2023-05-09T09:55:09;24.80;49.00
41304;DHT22;51002;51.462;7.218;2023-05-09T09:57:34;24.50;49.10
41304;DHT22;51002;51.462;7.218;2023-05-09T10:00:02;24.80;50.20
41304;DHT22;51002;51.462;7.218;2023-05-09T10:02:28;25.20;51.70
41304;DHT22;51002;51.462;7.218;2023-05-09T10:04:55;25.30;49.30
41304;DHT22;51002;51.462;7.218;2023-05-09T10:07:21;25.00;47.90
41304;DHT22;51002;51.462;7.218;2023-05-09T10:09:48;25.10;50.50
41304;DHT22;51002;51.462;7.218;2023-05-09T10:12:13;25.00;48.80
41304;DHT22;51002;51.462;7.218;2023-05-09T10:14:43;25.00;48.30
41304;DHT22;51002;51.462;7.218;2023-05-09T10:17:14;24.70;47.10
41304;DHT22;51002;51.462;7.218;2023-05-09T10:19:44;24.80;48.30
41304;DHT22;51002;51.462;7.218;2023-05-09T10:22:14;25.00;52.20
41304;DHT22;51002;51.462;7.218;2023-05-09T10:27:13;24.90;48.00
41304;DHT22;51002;51.462;7.218;2023-05-09T10:30:27;24.40;47.30
41304;DHT22;51002;51.462;7.218;2023-05-09T10:34:50;24.50;49.10
41304;DHT22;51002;51.462;7.218;2023-05-09T10:37:20;24.70;49.20
41304;DHT22;51002;51.462;7.218;2023-05-09T10:39:50;24.80;51.00
41304;DHT22;51002;51.462;7.218;2023-05-09T10:42:19;24.50;52.60
41304;DHT22;51002;51.462;7.218;2023-05-09T10:44:48;24.70;50.50
41304;DHT22;51002;51.462;7.218;2023-05-09T10:47:16;24.60;50.60
41304;DHT22;51002;51.462;7.218;2023-05-09T10:49:42;24.40;50.40
41304;DHT22;51002;51.462;7.218;2023-05-09T10:52:10;24.20;50.30
41304;DHT22;51002;51.462;7.218;2023-05-09T10:54:36;24.50;49.80
41304;DHT22;51002;51.462;7.218;2023-05-09T10:57:07;24.60;48.50
41304;DHT22;51002;51.462;7.218;2023-05-09T11:02:02;24.30;48.80
41304;DHT22;51002;51.462;7.218;2023-05-09T11:04:31;24.40;49.10
41304;DHT22;51002;51.462;7.218;2023-05-09T11:07:00;24.20;49.40
41304;DHT22;51002;51.462;7.218;2023-05-09T11:09:32;24.10;48.10
41304;DHT22;51002;51.462;7.218;2023-05-09T11:17:01;24.10;48.70
41304;DHT22;51002;51.462;7.218;2023-05-09T11:22:05;23.80;50.20
41304;DHT22;51002;51.462;7.218;2023-05-09T11:24:35;23.70;49.00
41304;DHT22;51002;51.462;7.218;2023-05-09T11:27:03;23.80;48.50
41304;DHT22;51002;51.462;7.218;2023-05-09T11:29:41;24.00;50.30
41304;DHT22;51002;51.462;7.218;2023-05-09T11:32:12;24.00;50.90
41304;DHT22;51002;51.462;7.218;2023-05-09T11:34:39;23.70;52.60
41304;DHT22;51002;51.462;7.218;2023-05-09T11:37:06;23.50;50.50
41304;DHT22;51002;51.462;7.218;2023-05-09T11:39:33;23.70;51.20
41304;DHT22;51002;51.462;7.218;2023-05-09T11:42:00;23.90;57.60
41304;DHT22;51002;51.462;7.218;2023-05-09T11:44:26;23.90;50.50
41304;DHT22;51002;51.462;7.218;2023-05-09T11:46:56;23.80;49.80
41304;DHT22;51002;51.462;7.218;2023-05-09T11:49:24;24.00;50.40
41304;DHT22;51002;51.462;7.218;2023-05-09T11:51:58;23.90;50.30
41304;DHT22;51002;51.462;7.218;2023-05-09T11:54:25;24.00;51.20
41304;DHT22;51002;51.462;7.218;2023-05-09T11:56:51;23.80;50.40
41304;DHT22;51002;51.462;7.218;2023-05-09T11:59:19;23.80;51.90
41304;DHT22;51002;51.462;7.218;2023-05-09T12:01:48;23.40;49.20
41304;DHT22;51002;51.462;7.218;2023-05-09T12:04:14;23.40;50.40
41304;DHT22;51002;51.462;7.218;2023-05-09T12:06:45;23.30;51.40
41304;DHT22;51002;51.462;7.218;2023-05-09T12:09:11;23.40;50.90
41304;DHT22;51002;51.462;7.218;2023-05-09T12:11:36;23.30;51.10
41304;DHT22;51002;51.462;7.218;2023-05-09T12:14:02;23.20;51.80
41304;DHT22;51002;51.462;7.218;2023-05-09T12:16:28;23.20;54.90
41304;DHT22;51002;51.462;7.218;2023-05-09T12:18:53;23.20;52.60
41304;DHT22;51002;51.462;7.218;2023-05-09T12:21:19;23.20;54.30
41304;DHT22;51002;51.462;7.218;2023-05-09T12:23:46;23.20;53.00
41304;DHT22;51002;51.462;7.218;2023-05-09T12:27:36;23.20;52.50
41304;DHT22;51002;51.462;7.218;2023-05-09T12:34:49;23.20;52.90
41304;DHT22;51002;51.462;7.218;2023-05-09T12:37:16;23.60;54.40
41304;DHT22;51002;51.462;7.218;2023-05-09T12:42:27;23.20;52.40
41304;DHT22;51002;51.462;7.218;2023-05-09T12:44:53;23.20;52.30
41304;DHT22;51002;51.462;7.218;2023-05-09T12:47:18;23.30;52.00
41304;DHT22;51002;51.462;7.218;2023-05-09T12:49:47;23.20;53.50
41304;DHT22;51002;51.462;7.218;2023-05-09T12:52:17;23.20;52.40
41304;DHT22;51002;51.462;7.218;2023-05-09T12:54:48;23.20;51.70
41304;DHT22;51002;51.462;7.218;2023-05-09T12:57:23;23.20;51.50
41304;DHT22;51002;51.462;7.218;2023-05-09T12:59:49;23.20;52.40
41304;DHT22;51002;51.462;7.218;2023-05-09T13:02:15;23.40;54.20
41304;DHT22;51002;51.462;7.218;2023-05-09T13:04:43;23.50;52.30
41304;DHT22;51002;51.462;7.218;2023-05-09T13:07:09;23.60;56.30
41304;DHT22;51002;51.462;7.218;2023-05-09T13:09:34;23.70;56.60
41304;DHT22;51002;51.462;7.218;2023-05-09T13:12:04;23.50;52.70
41304;DHT22;51002;51.462;7.218;2023-05-09T13:14:29;23.50;52.70
41304;DHT22;51002;51.462;7.218;2023-05-09T13:16:55;23.30;52.40
41304;DHT22;51002;51.462;7.218;2023-05-09T13:19:21;23.30;50.70
41304;DHT22;51002;51.462;7.218;2023-05-09T13:21:48;23.30;54.00
41304;DHT22;51002;51.462;7.218;2023-05-09T13:24:14;23.30;52.50
41304;DHT22;51002;51.462;7.218;2023-05-09T13:26:39;23.20;54.20
41304;DHT22;51002;51.462;7.218;2023-05-09T13:29:05;23.20;50.00
41304;DHT22;51002;51.462;7.218;2023-05-09T13:31:30;23.00;50.60
41304;DHT22;51002;51.462;7.218;2023-05-09T13:33:56;23.00;50.90
41304;DHT22;51002;51.462;7.218;2023-05-09T13:36:21;22.90;51.40
41304;DHT22;51002;51.462;7.218;2023-05-09T13:38:47;23.00;51.50
41304;DHT22;51002;51.462;7.218;2023-05-09T13:41:12;23.00;50.90
41304;DHT22;51002;51.462;7.218;2023-05-09T13:43:44;23.00;51.30
41304;DHT22;51002;51.462;7.218;2023-05-09T13:46:11;22.90;51.00
41304;DHT22;51002;51.462;7.218;2023-05-09T13:48:37;22.80;51.60
41304;DHT22;51002;51.462;7.218;2023-05-09T13:51:06;22.80;52.80
41304;DHT22;51002;51.462;7.218;2023-05-09T13:53:32;22.80;56.60
41304;DHT22;51002;51.462;7.218;2023-05-09T13:55:57;22.90;53.80
41304;DHT22;51002;51.462;7.218;2023-05-09T13:58:23;22.90;55.90
41304;DHT22;51002;51.462;7.218;2023-05-09T14:02:47;22.70;51.40
41304;DHT22;51002;51.462;7.218;2023-05-09T14:05:13;22.80;51.90
41304;DHT22;51002;51.462;7.218;2023-05-09T14:07:38;22.80;53.40
41304;DHT22;51002;51.462;7.218;2023-05-09T14:10:07;22.80;52.00
41304;DHT22;51002;51.462;7.218;2023-05-09T14:12:32;22.70;53.50
41304;DHT22;51002;51.462;7.218;2023-05-09T14:14:58;22.60;53.70
41304;DHT22;51002;51.462;7.218;2023-05-09T14:17:23;22.70;55.20
41304;DHT22;51002;51.462;7.218;2023-05-09T14:19:49;22.60;54.40
41304;DHT22;51002;51.462;7.218;2023-05-09T14:22:14;22.50;54.20
41304;DHT22;51002;51.462;7.218;2023-05-09T14:24:40;22.40;58.90
41304;DHT22;51002;51.462;7.218;2023-05-09T14:27:11;22.40;57.20
41304;DHT22;51002;51.462;7.218;2023-05-09T14:29:39;22.30;58.00
41304;DHT22;51002;51.462;7.218;2023-05-09T14:32:04;22.30;59.50
41304;DHT22;51002;51.462;7.218;2023-05-09T14:34:31;22.30;60.30
41304;DHT22;51002;51.462;7.218;2023-05-09T14:36:57;22.20;61.00
41304;DHT22;51002;51.462;7.218;2023-05-09T14:39:22;21.80;63.20
41304;DHT22;51002;51.462;7.218;2023-05-09T14:41:48;21.70;64.40
41304;DHT22;51002;51.462;7.218;2023-05-09T14:44:17;21.70;64.50
41304;DHT22;51002;51.462;7.218;2023-05-09T14:46:42;21.70;64.80
41304;DHT22;51002;51.462;7.218;2023-05-09T14:49:08;21.30;65.80
41304;DHT22;51002;51.462;7.218;2023-05-09T14:51:36;21.40;67.20
41304;DHT22;51002;51.462;7.218;2023-05-09T14:54:02;21.20;67.90
41304;DHT22;51002;51.462;7.218;2023-05-09T14:56:27;21.10;67.00
41304;DHT22;51002;51.462;7.218;2023-05-09T14:58:53;20.80;68.10
41304;DHT22;51002;51.462;7.218;2023-05-09T15:02:01;20.90;67.60
41304;DHT22;51002;51.462;7.218;2023-05-09T15:04:27;20.80;67.40
41304;DHT22;51002;51.462;7.218;2023-05-09T15:06:55;21.00;68.10
41304;DHT22;51002;51.462;7.218;2023-05-09T15:09:21;20.80;67.50
41304;DHT22;51002;51.462;7.218;2023-05-09T15:11:47;20.90;68.20
41304;DHT22;51002;51.462;7.218;2023-05-09T15:14:12;20.80;73.40
41304;DHT22;51002;51.462;7.218;2023-05-09T15:16:38;20.60;73.70
41304;DHT22;51002;51.462;7.218;2023-05-09T15:19:03;20.40;76.80
41304;DHT22;51002;51.462;7.218;2023-05-09T15:21:47;20.30;81.10
41304;DHT22;51002;51.462;7.218;2023-05-09T15:24:12;19.90;81.10
41304;DHT22;51002;51.462;7.218;2023-05-09T15:26:38;19.80;79.80
41304;DHT22;51002;51.462;7.218;2023-05-09T15:29:05;19.70;79.30
41304;DHT22;51002;51.462;7.218;2023-05-09T15:31:31;19.70;81.00
41304;DHT22;51002;51.462;7.218;2023-05-09T15:33:57;19.30;84.10
41304;DHT22;51002;51.462;7.218;2023-05-09T15:36:22;18.90;87.50
41304;DHT22;51002;51.462;7.218;2023-05-09T15:38:48;19.00;89.30
41304;DHT22;51002;51.462;7.218;2023-05-09T15:41:14;18.80;89.80
41304;DHT22;51002;51.462;7.218;2023-05-09T15:43:40;18.70;90.00
41304;DHT22;51002;51.462;7.218;2023-05-09T15:46:05;18.50;90.50
41304;DHT22;51002;51.462;7.218;2023-05-09T15:48:31;18.50;92.30
41304;DHT22;51002;51.462;7.218;2023-05-09T15:50:57;18.20;93.50
41304;DHT22;51002;51.462;7.218;2023-05-09T15:53:25;18.40;94.40
41304;DHT22;51002;51.462;7.218;2023-05-09T15:55:51;18.30;94.20
41304;DHT22;51002;51.462;7.218;2023-05-09T15:58:17;18.30;94.80
41304;DHT22;51002;51.462;7.218;2023-05-09T16:00:44;18.20;95.00
41304;DHT22;51002;51.462;7.218;2023-05-09T16:03:10;17.80;94.40
41304;DHT22;51002;51.462;7.218;2023-05-09T16:05:36;17.90;94.90
41304;DHT22;51002;51.462;7.218;2023-05-09T16:08:04;18.00;94.90
41304;DHT22;51002;51.462;7.218;2023-05-09T16:10:31;18.10;95.20
41304;DHT22;51002;51.462;7.218;2023-05-09T16:12:56;18.10;95.20
41304;DHT22;51002;51.462;7.218;2023-05-09T16:15:22;17.80;95.30
41304;DHT22;51002;51.462;7.218;2023-05-09T16:17:47;18.00;95.70
41304;DHT22;51002;51.462;7.218;2023-05-09T16:20:15;17.80;95.60
41304;DHT22;51002;51.462;7.218;2023-05-09T16:22:41;17.80;95.60
41304;DHT22;51002;51.462;7.218;2023-05-09T16:25:06;17.90;95.70
41304;DHT22;51002;51.462;7.218;2023-05-09T16:27:32;17.90;95.80
41304;DHT22;51002;51.462;7.218;2023-05-09T16:29:58;17.80;95.80
41304;DHT22;51002;51.462;7.218;2023-05-09T16:32:23;17.90;95.90
41304;DHT22;51002;51.462;7.218;2023-05-09T16:34:49;17.90;95.90
41304;DHT22;51002;51.462;7.218;2023-05-09T16:37:16;17.70;95.80
41304;DHT22;51002;51.462;7.218;2023-05-09T16:39:44;17.70;95.90
41304;DHT22;51002;51.462;7.218;2023-05-09T16:42:10;17.70;96.00
41304;DHT22;51002;51.462;7.218;2023-05-09T16:44:35;17.80;95.90
41304;DHT22;51002;51.462;7.218;2023-05-09T16:47:01;17.70;95.90
41304;DHT22;51002;51.462;7.218;2023-05-09T16:49:26;17.70;95.90
41304;DHT22;51002;51.462;7.218;2023-05-09T16:51:52;17.60;95.90
41304;DHT22;51002;51.462;7.218;2023-05-09T16:54:18;17.60;95.90
41304;DHT22;51002;51.462;7.218;2023-05-09T16:56:43;17.50;95.90
41304;DHT22;51002;51.462;7.218;2023-05-09T16:59:09;17.50;95.90
41304;DHT22;51002;51.462;7.218;2023-05-09T17:01:34;17.50;96.00
41304;DHT22;51002;51.462;7.218;2023-05-09T17:04:00;17.50;96.00
41304;DHT22;51002;51.462;7.218;2023-05-09T17:06:26;17.50;96.00
41304;DHT22;51002;51.462;7.218;2023-05-09T17:08:52;17.60;96.10
41304;DHT22;51002;51.462;7.218;2023-05-09T17:11:17;17.40;96.10
41304;DHT22;51002;51.462;7.218;2023-05-09T17:13:43;17.50;96.00
41304;DHT22;51002;51.462;7.218;2023-05-09T17:16:08;17.40;96.10
41304;DHT22;51002;51.462;7.218;2023-05-09T17:18:34;17.40;96.10
41304;DHT22;51002;51.462;7.218;2023-05-09T17:21:00;17.30;96.10
41304;DHT22;51002;51.462;7.218;2023-05-09T17:23:25;17.20;96.00
41304;DHT22;51002;51.462;7.218;2023-05-09T17:25:51;17.20;96.00
41304;DHT22;51002;51.462;7.218;2023-05-09T17:28:16;17.20;96.00
41304;DHT22;51002;51.462;7.218;2023-05-09T17:30:44;17.00;96.00
41304;DHT22;51002;51.462;7.218;2023-05-09T17:33:09;17.10;95.90
41304;DHT22;51002;51.462;7.218;2023-05-09T17:35:35;17.20;95.90
41304;DHT22;51002;51.462;7.218;2023-05-09T17:38:01;17.20;96.10
41304;DHT22;51002;51.462;7.218;2023-05-09T17:40:27;17.00;96.10
41304;DHT22;51002;51.462;7.218;2023-05-09T17:42:52;16.80;96.10
41304;DHT22;51002;51.462;7.218;2023-05-09T17:45:20;17.00;96.10
41304;DHT22;51002;51.462;7.218;2023-05-09T17:47:46;16.90;96.20
41304;DHT22;51002;51.462;7.218;2023-05-09T17:50:11;17.00;96.20
41304;DHT22;51002;51.462;7.218;2023-05-09T17:52:41;17.10;96.20
41304;DHT22;51002;51.462;7.218;2023-05-09T17:55:08;17.10;96.20
41304;DHT22;51002;51.462;7.218;2023-05-09T17:57:36;16.90;96.00
41304;DHT22;51002;51.462;7.218;2023-05-09T18:00:02;17.10;96.10
41304;DHT22;51002;51.462;7.218;2023-05-09T18:02:28;17.00;96.10
41304;DHT22;51002;51.462;7.218;2023-05-09T18:04:53;17.00;96.00
41304;DHT22;51002;51.462;7.218;2023-05-09T18:07:19;16.80;95.90
41304;DHT22;51002;51.462;7.218;2023-05-09T18:09:45;16.90;96.10
41304;DHT22;51002;51.462;7.218;2023-05-09T18:12:10;17.00;96.10
41304;DHT22;51002;51.462;7.218;2023-05-09T18:14:38;16.90;96.20
41304;DHT22;51002;51.462;7.218;2023-05-09T18:17:04;17.00;96.30
41304;DHT22;51002;51.462;7.218;2023-05-09T18:19:29;17.00;96.30
41304;DHT22;51002;51.462;7.218;2023-05-09T18:21:55;17.00;96.30
41304;DHT22;51002;51.462;7.218;2023-05-09T18:24:21;17.00;96.30
41304;DHT22;51002;51.462;7.218;2023-05-09T18:26:47;17.00;96.30
41304;DHT22;51002;51.462;7.218;2023-05-09T18:29:13;16.90;96.30
41304;DHT22;51002;51.462;7.218;2023-05-09T18:31:38;16.90;96.40
41304;DHT22;51002;51.462;7.218;2023-05-09T18:34:05;16.70;96.20
41304;DHT22;51002;51.462;7.218;2023-05-09T18:36:31;16.70;96.20
41304;DHT22;51002;51.462;7.218;2023-05-09T18:38:57;16.70;96.10
41304;DHT22;51002;51.462;7.218;2023-05-09T20:00:17;16.30;96.00
41304;DHT22;51002;51.462;7.218;2023-05-09T20:02:45;15.90;91.60
41304;DHT22;51002;51.462;7.218;2023-05-09T20:05:11;16.00;91.60
41304;DHT22;51002;51.462;7.218;2023-05-09T20:07:36;15.80;91.60
41304;DHT22;51002;51.462;7.218;2023-05-09T20:10:02;15.90;91.60
41304;DHT22;51002;51.462;7.218;2023-05-09T20:12:27;15.80;91.60
41304;DHT22;51002;51.462;7.218;2023-05-09T20:21:13;15.90;91.60
41304;DHT22;51002;51.462;7.218;2023-05-09T20:23:41;15.80;91.60
41304;DHT22;51002;51.462;7.218;2023-05-09T21:06:49;15.70;91.60
41304;DHT22;51002;51.462;7.218;2023-05-09T21:14:04;15.60;91.80
41304;DHT22;51002;51.462;7.218;2023-05-09T21:16:32;15.50;91.80
41304;DHT22;51002;51.462;7.218;2023-05-09T21:18:57;15.60;91.80
41304;DHT22;51002;51.462;7.218;2023-05-09T21:21:30;15.40;91.80
41304;DHT22;51002;51.462;7.218;2023-05-09T21:23:57;15.50;91.80
41304;DHT22;51002;51.462;7.218;2023-05-09T21:26:28;15.60;91.80
41304;DHT22;51002;51.462;7.218;2023-05-09T21:28:54;15.50;91.80
41304;DHT22;51002;51.462;7.218;2023-05-09T21:31:20;15.50;91.80
41304;DHT22;51002;51.462;7.218;2023-05-09T21:33:45;15.50;91.80
41304;DHT22;51002;51.462;7.218;2023-05-09T21:36:11;15.50;91.80
41304;DHT22;51002;51.462;7.218;2023-05-09T21:38:36;15.30;91.80
41304;DHT22;51002;51.462;7.218;2023-05-09T21:41:02;15.10;91.80
41304;DHT22;51002;51.462;7.218;2023-05-09T21:43:27;15.00;91.80
41304;DHT22;51002;51.462;7.218;2023-05-09T21:45:53;15.20;91.80
41304;DHT22;51002;51.462;7.218;2023-05-09T21:48:19;15.10;91.80
41304;DHT22;51002;51.462;7.218;2023-05-09T21:50:44;15.30;91.80
41304;DHT22;51002;51.462;7.218;2023-05-09T21:53:11;15.20;91.80
41304;DHT22;51002;51.462;7.218;2023-05-09T21:55:36;14.80;91.80
41304;DHT22;51002;51.462;7.218;2023-05-09T21:58:02;14.80;91.80
41304;DHT22;51002;51.462;7.218;2023-05-09T22:00:27;14.70;91.80
41304;DHT22;51002;51.462;7.218;2023-05-09T22:02:53;14.80;91.80
41304;DHT22;51002;51.462;7.218;2023-05-09T22:05:18;14.70;91.80
41304;DHT22;51002;51.462;7.218;2023-05-09T22:07:44;15.00;91.80
41304;DHT22;51002;51.462;7.218;2023-05-09T22:10:09;14.90;91.90
41304;DHT22;51002;51.462;7.218;2023-05-09T22:12:37;15.10;91.90
41304;DHT22;51002;51.462;7.218;2023-05-09T22:15:03;15.10;91.90
41304;DHT22;51002;51.462;7.218;2023-05-09T22:17:28;15.10;91.80
41304;DHT22;51002;51.462;7.218;2023-05-09T22:19:54;14.90;91.90
41304;DHT22;51002;51.462;7.218;2023-05-09T22:22:22;15.00;91.90
41304;DHT22;51002;51.462;7.218;2023-05-09T22:24:47;14.80;91.80
41304;DHT22;51002;51.462;7.218;2023-05-09T22:27:16;15.00;91.90
41304;DHT22;51002;51.462;7.218;2023-05-09T22:29:41;14.80;91.90
41304;DHT22;51002;51.462;7.218;2023-05-09T22:32:07;14.90;91.90
41304;DHT22;51002;51.462;7.218;2023-05-09T22:34:34;14.90;91.90
41304;DHT22;51002;51.462;7.218;2023-05-09T22:36:59;14.70;91.90
41304;DHT22;51002;51.462;7.218;2023-05-09T22:39:25;14.60;91.90
41304;DHT22;51002;51.462;7.218;2023-05-09T22:41:51;14.80;91.90
41304;DHT22;51002;51.462;7.218;2023-05-09T22:44:16;14.80;91.90
41304;DHT22;51002;51.462;7.218;2023-05-09T22:46:44;14.90;91.90
41304;DHT22;51002;51.462;7.218;2023-05-09T22:49:12;14.80;91.90